Time;durP1;ratioP1;P1;durP2;ratioP2;P2;SDS_P1;SDS_P2;PMS_P1;PMS_P2;Temp;Humidity;BMP_temperature;BMP_pressure;BME280_temperature;BME280_humidity;BME280_pressure;Samples;Min_cycle;Max_cycle;Signal;HPM_P1;HPM_P2
2023/05/15 00:00:14;;;;;;;;;;;;;;;;;;2213023;66;1627;-21
2023/05/15 00:02:45;;;;;;;;;;;;;;;;;;2210481;59;1696;-21
2023/05/15 00:05:18;;;;;;;;;;;;;;;;;;2213635;66;1778;-22
2023/05/15 00:07:48;;;;;;;;;;;;;;;;;;2209881;67;1340;-22
2023/05/15 00:10:19;;;;;;;;;;;;;;;;;;2213353;66;1131;-22
2023/05/15 00:12:49;;;;;;;;;;;;;;;;;;2213822;66;1503;-22
2023/05/15 00:15:19;;;;;;;;;;;;;;;;;;2213075;59;2065;-22
2023/05/15 00:17:49;;;;;;;;;;;;;;;;;;2213317;59;2198;-22
2023/05/15 00:20:20;;;;;;;;;;;;;;;;;;2210046;67;1652;-22
2023/05/15 00:22:53;;;;;;;;;;;;;;;;;;2213858;66;1575;-22
2023/05/15 00:25:23;;;;;;;;;;;;;;;;;;2212370;59;2162;-22
2023/05/15 00:27:53;;;;;;;;;;;;;;;;;;2213531;59;1609;-22
2023/05/15 00:30:23;;;;;;;;;;;;;;;;;;2212652;67;1242;-22
2023/05/15 00:32:54;;;;;;;;;;;;;;;;;;2212879;67;2020;-22
2023/05/15 00:35:24;;;;;;;;;;;;;;;;;;2212967;59;1292;-22
2023/05/15 00:37:54;;;;;;;;;;;;;;;;;;2213840;59;1951;-22
2023/05/15 00:40:26;;;;;;;;;;;;;;;;;;2210298;59;1421;-22
2023/05/15 00:42:57;;;;;;;;;;;;;;;;;;2212944;67;1566;-22
2023/05/15 00:45:27;;;;;;;;;;;;;;;;;;2212652;59;2048;-22
2023/05/15 00:47:58;;;;;;;;;;;;;;;;;;2213384;59;2171;-22
2023/05/15 00:50:28;;;;;;;;;;;;;;;;;;2210386;59;1262;-22
2023/05/15 00:52:59;;;;;;;;;;;;;;;;;;2213906;59;1536;-22
2023/05/15 00:55:30;;;;;;;;;;;;;;;;;;2214032;59;1918;-22
2023/05/15 00:58:01;;;;;;;;;;;;;;;;;;2212725;59;2222;-22
2023/05/15 01:00:32;;;;;;;;;;;;;;;;;;2209866;59;1467;-22
2023/05/15 01:03:03;;;;;;;;;;;;;;;;;;2213465;59;2267;-22
2023/05/15 01:05:36;;;;;;;;;;;;;;;;;;2212823;67;1775;-22
2023/05/15 01:08:06;;;;;;;;;;;;;;;;;;2209562;67;1643;-22
2023/05/15 01:10:38;;;;;;;;;;;;;;;;;;2213384;67;1906;-22
2023/05/15 01:13:09;;;;;;;;;;;;;;;;;;2213276;67;1222;-22
2023/05/15 01:15:39;;;;;;;;;;;;;;;;;;2213413;67;1332;-22
2023/05/15 01:18:09;;;;;;;;;;;;;;;;;;2212959;67;1939;-22
2023/05/15 01:20:46;;;;;;;;;;;;;;;;;;2210011;67;1198;-22
2023/05/15 01:23:22;;;;;;;;;;;;;;;;;;2212983;67;1183;-22
2023/05/15 01:26:11;;;;;;;;;;;;;;;;;;2213975;67;1578;-22
2023/05/15 01:28:45;;;;;;;;;;;;;;;;;;2213354;67;1165;-22
2023/05/15 01:31:18;;;;;;;;;;;;;;;;;;2212785;66;1292;-22
2023/05/15 01:33:51;;;;;;;;;;;;;;;;;;2213469;66;1111;-22
2023/05/15 01:36:25;;;;;;;;;;;;;;;;;;2212534;58;1700;-22
2023/05/15 01:38:57;;;;;;;;;;;;;;;;;;2210374;59;1984;-22
2023/05/15 01:41:27;;;;;;;;;;;;;;;;;;2213520;67;1799;-22
2023/05/15 01:44:06;;;;;;;;;;;;;;;;;;2212953;66;1306;-22
2023/05/15 01:46:38;;;;;;;;;;;;;;;;;;2210591;59;2225;-22
2023/05/15 01:49:09;;;;;;;;;;;;;;;;;;2213662;59;2294;-22
2023/05/15 01:51:41;;;;;;;;;;;;;;;;;;2213507;67;1436;-22
2023/05/15 01:54:12;;;;;;;;;;;;;;;;;;2213106;59;2014;-22
2023/05/15 01:56:44;;;;;;;;;;;;;;;;;;2212825;66;1216;-22
2023/05/15 01:59:15;;;;;;;;;;;;;;;;;;2212792;59;2260;-22
2023/05/15 02:01:46;;;;;;;;;;;;;;;;;;2213226;67;1683;-22
2023/05/15 02:04:17;;;;;;;;;;;;;;;;;;2212316;67;1215;-22
2023/05/15 02:06:49;;;;;;;;;;;;;;;;;;2212197;59;2138;-22
2023/05/15 02:09:20;;;;;;;;;;;;;;;;;;2212299;67;1800;-22
2023/05/15 02:11:50;;;;;;;;;;;;;;;;;;2212698;67;1476;-22
2023/05/15 02:14:21;;;;;;;;;;;;;;;;;;2212959;67;1233;-22
2023/05/15 02:16:51;;;;;;;;;;;;;;;;;;2213182;66;1830;-22
2023/05/15 02:19:22;;;;;;;;;;;;;;;;;;2209485;67;1940;-22
2023/05/15 02:21:52;;;;;;;;;;;;;;;;;;2212640;67;1122;-22
2023/05/15 02:24:22;;;;;;;;;;;;;;;;;;2213043;67;1744;-22
2023/05/15 02:26:52;;;;;;;;;;;;;;;;;;2213102;67;1196;-22
2023/05/15 02:29:35;;;;;;;;;;;;;;;;;;2213119;59;1734;-22
2023/05/15 02:32:08;;;;;;;;;;;;;;;;;;2209942;67;1491;-21
2023/05/15 02:34:58;;;;;;;;;;;;;;;;;;2212741;59;1242;-22
2023/05/15 02:37:34;;;;;;;;;;;;;;;;;;2205362;67;1947;-21
2023/05/15 02:40:07;;;;;;;;;;;;;;;;;;2213506;67;1479;-21
2023/05/15 02:42:37;;;;;;;;;;;;;;;;;;2213499;59;1300;-22
2023/05/15 02:45:09;;;;;;;;;;;;;;;;;;2213394;59;1678;-22
2023/05/15 02:47:39;;;;;;;;;;;;;;;;;;2212829;59;2182;-21
2023/05/15 02:50:10;;;;;;;;;;;;;;;;;;2213045;67;1224;-21
2023/05/15 02:52:40;;;;;;;;;;;;;;;;;;2210830;59;1993;-21
2023/05/15 02:55:10;;;;;;;;;;;;;;;;;;2212974;59;1253;-21
2023/05/15 02:57:41;;;;;;;;;;;;;;;;;;2213453;67;2268;-21
2023/05/15 03:00:12;;;;;;;;;;;;;;;;;;2213208;59;1828;-21
2023/05/15 03:02:42;;;;;;;;;;;;;;;;;;2213400;59;1377;-21
2023/05/15 03:05:12;;;;;;;;;;;;;;;;;;2209772;67;1725;-30
2023/05/15 03:07:42;;;;;;;;;;;;;;;;;;2210422;67;1462;-21
2023/05/15 03:10:13;;;;;;;;;;;;;;;;;;2212592;66;1460;-21
2023/05/15 03:12:43;;;;;;;;;;;;;;;;;;2212719;67;1061;-21
2023/05/15 03:15:13;;;;;;;;;;;;;;;;;;2210267;59;1756;-21
2023/05/15 03:17:43;;;;;;;;;;;;;;;;;;2212989;67;1932;-21
2023/05/15 03:20:14;;;;;;;;;;;;;;;;;;2213912;67;1129;-21
2023/05/15 03:22:44;;;;;;;;;;;;;;;;;;2215981;67;1271;-21
2023/05/15 03:25:17;;;;;;;;;;;;;;;;;;2213497;66;1206;-21
2023/05/15 03:27:47;;;;;;;;;;;;;;;;;;2212968;67;1273;-21
2023/05/15 03:30:18;;;;;;;;;;;;;;;;;;2212507;66;1384;-21
2023/05/15 03:32:48;;;;;;;;;;;;;;;;;;2214024;66;1386;-21
2023/05/15 03:35:18;;;;;;;;;;;;;;;;;;2212965;59;1156;-20
2023/05/15 03:37:48;;;;;;;;;;;;;;;;;;2210502;59;1962;-21
2023/05/15 03:40:18;;;;;;;;;;;;;;;;;;2213684;67;1426;-21
2023/05/15 03:42:52;;;;;;;;;;;;;;;;;;2214610;67;1010;-21
2023/05/15 03:45:22;;;;;;;;;;;;;;;;;;2213833;67;1947;-21
2023/05/15 03:47:55;;;;;;;;;;;;;;;;;;2214111;59;1952;-21
2023/05/15 03:50:25;;;;;;;;;;;;;;;;;;2213783;59;1341;-21
2023/05/15 03:52:55;;;;;;;;;;;;;;;;;;2210370;67;2224;-21
2023/05/15 03:55:26;;;;;;;;;;;;;;;;;;2213537;59;1669;-21
2023/05/15 03:57:56;;;;;;;;;;;;;;;;;;2213814;59;2245;-21
2023/05/15 04:00:27;;;;;;;;;;;;;;;;;;2213827;59;1325;-21
2023/05/15 04:02:57;;;;;;;;;;;;;;;;;;2214490;59;1558;-21
2023/05/15 04:05:27;;;;;;;;;;;;;;;;;;2213714;66;1219;-21
2023/05/15 04:07:57;;;;;;;;;;;;;;;;;;2214182;66;1185;-21
2023/05/15 04:10:28;;;;;;;;;;;;;;;;;;2209971;67;1205;-21
2023/05/15 04:12:58;;;;;;;;;;;;;;;;;;2213867;66;1085;-21
2023/05/15 04:15:28;;;;;;;;;;;;;;;;;;2213837;66;1261;-21
2023/05/15 04:17:58;;;;;;;;;;;;;;;;;;2213417;66;1922;-21
2023/05/15 04:20:32;;;;;;;;;;;;;;;;;;2213445;66;1256;-21
2023/05/15 04:23:04;;;;;;;;;;;;;;;;;;2213521;66;1286;-21
2023/05/15 04:25:35;;;;;;;;;;;;;;;;;;2213969;66;1285;-21
2023/05/15 04:28:05;;;;;;;;;;;;;;;;;;2213634;59;1392;-21
2023/05/15 04:30:35;;;;;;;;;;;;;;;;;;2213448;67;1132;-22
2023/05/15 04:33:06;;;;;;;;;;;;;;;;;;2213758;66;1116;-22
2023/05/15 04:35:36;;;;;;;;;;;;;;;;;;2212959;59;2194;-22
2023/05/15 04:38:06;;;;;;;;;;;;;;;;;;2210014;59;1939;-22
2023/05/15 04:40:36;;;;;;;;;;;;;;;;;;2213706;66;1470;-22
2023/05/15 04:43:07;;;;;;;;;;;;;;;;;;2213641;67;1460;-22
2023/05/15 04:45:37;;;;;;;;;;;;;;;;;;2210734;67;1354;-22
2023/05/15 04:48:07;;;;;;;;;;;;;;;;;;2213963;59;2136;-21
2023/05/15 04:50:37;;;;;;;;;;;;;;;;;;2213373;66;2103;-22
2023/05/15 04:53:08;;;;;;;;;;;;;;;;;;2213677;67;1555;-22
2023/05/15 04:55:38;;;;;;;;;;;;;;;;;;2209931;59;1191;-22
2023/05/15 04:58:08;;;;;;;;;;;;;;;;;;2213195;59;5249;-22
2023/05/15 05:00:39;;;;;;;;;;;;;;;;;;2213719;59;2106;-21
2023/05/15 05:03:09;;;;;;;;;;;;;;;;;;2214197;59;1746;-22
2023/05/15 05:05:39;;;;;;;;;;;;;;;;;;2214216;67;2849;-22
2023/05/15 05:08:09;;;;;;;;;;;;;;;;;;2213725;67;1955;-22
2023/05/15 05:10:42;;;;;;;;;;;;;;;;;;2213718;59;2063;-22
2023/05/15 05:13:12;;;;;;;;;;;;;;;;;;2213305;67;2489;-22
2023/05/15 05:15:43;;;;;;;;;;;;;;;;;;2213554;66;2996;-22
2023/05/15 05:18:13;;;;;;;;;;;;;;;;;;2212790;67;2543;-22
2023/05/15 05:20:43;;;;;;;;;;;;;;;;;;2213518;67;2391;-21
2023/05/15 05:23:13;;;;;;;;;;;;;;;;;;2213893;66;2099;-22
2023/05/15 05:25:44;;;;;;;;;;;;;;;;;;2212937;67;2348;-21
2023/05/15 05:28:14;;;;;;;;;;;;;;;;;;2213577;66;2165;-22
2023/05/15 05:30:45;;;;;;;;;;;;;;;;;;2209836;67;2006;-22
2023/05/15 05:33:15;;;;;;;;;;;;;;;;;;2212286;67;1759;-21
2023/05/15 05:35:45;;;;;;;;;;;;;;;;;;2213218;59;3178;-22
2023/05/15 05:38:15;;;;;;;;;;;;;;;;;;2213604;59;2028;-22
2023/05/15 05:40:46;;;;;;;;;;;;;;;;;;2210539;67;3010;-22
2023/05/15 05:43:16;;;;;;;;;;;;;;;;;;2212279;67;2176;-22
2023/05/15 05:45:49;;;;;;;;;;;;;;;;;;2213545;59;3326;-22
2023/05/15 05:48:19;;;;;;;;;;;;;;;;;;2213288;67;2462;-22
2023/05/15 05:50:50;;;;;;;;;;;;;;;;;;2212927;59;3500;-22
2023/05/15 05:53:20;;;;;;;;;;;;;;;;;;2214408;66;1837;-22
2023/05/15 05:55:50;;;;;;;;;;;;;;;;;;2213476;66;2539;-22
2023/05/15 05:58:21;;;;;;;;;;;;;;;;;;2213534;67;2877;-22
2023/05/15 06:00:51;;;;;;;;;;;;;;;;;;2212344;59;2526;-22
2023/05/15 06:03:21;;;;;;;;;;;;;;;;;;2214072;59;2663;-22
2023/05/15 06:05:52;;;;;;;;;;;;;;;;;;2213227;59;1884;-22
2023/05/15 06:08:23;;;;;;;;;;;;;;;;;;2213428;67;2066;-22
2023/05/15 06:10:53;;;;;;;;;;;;;;;;;;2213034;67;2073;-22
2023/05/15 06:13:23;;;;;;;;;;;;;;;;;;2213176;67;2018;-22
2023/05/15 06:15:54;;;;;;;;;;;;;;;;;;2213457;66;3178;-22
2023/05/15 06:18:24;;;;;;;;;;;;;;;;;;2213563;67;1984;-22
2023/05/15 06:20:54;;;;;;;;;;;;;;;;;;2213193;67;2061;-22
2023/05/15 06:23:27;;;;;;;;;;;;;;;;;;2213557;67;1965;-22
2023/05/15 06:25:57;;;;;;;;;;;;;;;;;;2210233;67;2946;-22
2023/05/15 06:28:28;;;;;;;;;;;;;;;;;;2213845;59;2947;-22
2023/05/15 06:30:58;;;;;;;;;;;;;;;;;;2212450;67;3152;-22
2023/05/15 06:33:28;;;;;;;;;;;;;;;;;;2209542;59;2718;-21
2023/05/15 06:35:58;;;;;;;;;;;;;;;;;;2208326;59;2090;-22
2023/05/15 06:38:28;;;;;;;;;;;;;;;;;;2212662;59;2196;-22
2023/05/15 06:40:59;;;;;;;;;;;;;;;;;;2212594;59;2072;-22
2023/05/15 06:43:29;;;;;;;;;;;;;;;;;;2211968;67;2855;-22
2023/05/15 06:45:59;;;;;;;;;;;;;;;;;;2212545;59;2135;-21
2023/05/15 06:48:29;;;;;;;;;;;;;;;;;;2212840;59;2120;-22
2023/05/15 06:51:00;;;;;;;;;;;;;;;;;;2212536;59;2507;-22
2023/05/15 06:53:33;;;;;;;;;;;;;;;;;;2212907;67;2133;-22
2023/05/15 06:56:03;;;;;;;;;;;;;;;;;;2212085;59;3028;-22
2023/05/15 06:58:33;;;;;;;;;;;;;;;;;;2213076;59;2525;-22
2023/05/15 07:01:05;;;;;;;;;;;;;;;;;;2208092;59;2463;-22
2023/05/15 07:03:35;;;;;;;;;;;;;;;;;;2210573;59;2175;-22
2023/05/15 07:06:05;;;;;;;;;;;;;;;;;;2211926;67;2537;-22
2023/05/15 07:08:36;;;;;;;;;;;;;;;;;;2211675;59;2828;-22
2023/05/15 07:11:06;;;;;;;;;;;;;;;;;;2208396;59;2671;-22
2023/05/15 07:13:36;;;;;;;;;;;;;;;;;;2211930;67;2824;-22
2023/05/15 07:16:06;;;;;;;;;;;;;;;;;;2213589;67;3329;-22
2023/05/15 07:18:36;;;;;;;;;;;;;;;;;;2212034;59;3396;-22
2023/05/15 07:21:07;;;;;;;;;;;;;;;;;;2212085;59;2105;-22
2023/05/15 07:23:37;;;;;;;;;;;;;;;;;;2212473;66;2308;-22
2023/05/15 07:26:07;;;;;;;;;;;;;;;;;;2209935;67;2130;-21
2023/05/15 07:28:40;;;;;;;;;;;;;;;;;;2213178;66;3373;-21
2023/05/15 07:31:10;;;;;;;;;;;;;;;;;;2208157;67;2422;-21
2023/05/15 07:33:43;;;;;;;;;;;;;;;;;;2212104;66;2957;-21
2023/05/15 07:36:16;;;;;;;;;;;;;;;;;;2212671;59;2781;-21
2023/05/15 07:38:46;;;;;;;;;;;;;;;;;;2210242;59;3120;-21
2023/05/15 07:41:17;;;;;;;;;;;;;;;;;;2213220;67;3120;-21
2023/05/15 07:43:47;;;;;;;;;;;;;;;;;;2211367;66;2108;-21
2023/05/15 07:46:17;;;;;;;;;;;;;;;;;;2211888;59;2941;-21
2023/05/15 07:48:48;;;;;;;;;;;;;;;;;;2213000;67;2982;-21
2023/05/15 07:51:18;;;;;;;;;;;;;;;;;;2209070;59;2138;-21
2023/05/15 07:53:48;;;;;;;;;;;;;;;;;;2212203;59;2534;-21
2023/05/15 07:56:18;;;;;;;;;;;;;;;;;;2205272;59;2065;-21
2023/05/15 07:58:48;;;;;;;;;;;;;;;;;;2211232;59;2230;-21
2023/05/15 08:01:19;;;;;;;;;;;;;;;;;;2211922;59;2289;-21
2023/05/15 08:03:49;;;;;;;;;;;;;;;;;;2212210;59;3143;-21
2023/05/15 08:06:19;;;;;;;;;;;;;;;;;;2212521;67;2163;-21
2023/05/15 08:08:49;;;;;;;;;;;;;;;;;;2213630;67;2917;-21
2023/05/15 08:11:20;;;;;;;;;;;;;;;;;;2213218;66;2762;-21
2023/05/15 08:13:51;;;;;;;;;;;;;;;;;;2212513;67;3789;-21
2023/05/15 08:16:21;;;;;;;;;;;;;;;;;;2212728;66;3008;-21
2023/05/15 08:18:54;;;;;;;;;;;;;;;;;;2212484;67;2512;-22
2023/05/15 08:21:25;;;;;;;;;;;;;;;;;;2213575;59;2963;-22
2023/05/15 08:23:59;;;;;;;;;;;;;;;;;;2212650;66;2202;-22
2023/05/15 08:26:29;;;;;;;;;;;;;;;;;;2212875;59;2258;-22
2023/05/15 08:28:59;;;;;;;;;;;;;;;;;;2212085;59;2642;-22
2023/05/15 08:31:29;;;;;;;;;;;;;;;;;;2210711;59;2507;-22
2023/05/15 08:34:00;;;;;;;;;;;;;;;;;;2208609;59;2026;-22
2023/05/15 08:36:30;;;;;;;;;;;;;;;;;;2212129;59;2326;-21
2023/05/15 08:39:00;;;;;;;;;;;;;;;;;;2213347;59;2458;-22
2023/05/15 08:41:32;;;;;;;;;;;;;;;;;;2213452;66;3053;-22
2023/05/15 08:44:03;;;;;;;;;;;;;;;;;;2213280;67;1895;-22
2023/05/15 08:46:34;;;;;;;;;;;;;;;;;;2213810;59;2387;-22
2023/05/15 08:49:10;;;;;;;;;;;;;;;;;;2213545;67;2711;-22
2023/05/15 08:51:40;;;;;;;;;;;;;;;;;;2213475;59;2790;-23
2023/05/15 08:54:10;;;;;;;;;;;;;;;;;;2211313;59;2797;-23
2023/05/15 08:56:41;;;;;;;;;;;;;;;;;;2210232;67;3985;-22
2023/05/15 08:59:11;;;;;;;;;;;;;;;;;;2213391;66;2315;-22
2023/05/15 09:01:41;;;;;;;;;;;;;;;;;;2213523;59;2251;-22
2023/05/15 09:04:12;;;;;;;;;;;;;;;;;;2212697;59;2393;-22
2023/05/15 09:06:43;;;;;;;;;;;;;;;;;;2212036;59;2267;-22
2023/05/15 09:09:13;;;;;;;;;;;;;;;;;;2212840;59;1983;-22
2023/05/15 09:11:44;;;;;;;;;;;;;;;;;;2213066;63;3746;-22
2023/05/15 09:14:18;;;;;;;;;;;;;;;;;;2209992;67;2183;-22
2023/05/15 09:16:49;;;;;;;;;;;;;;;;;;2212958;67;2583;-22
2023/05/15 09:19:21;;;;;;;;;;;;;;;;;;2212894;66;2206;-22
2023/05/15 09:21:51;;;;;;;;;;;;;;;;;;2213228;67;2977;-22
2023/05/15 09:24:23;;;;;;;;;;;;;;;;;;2213806;59;2799;-22
2023/05/15 09:27:04;;;;;;;;;;;;;;;;;;2213364;67;2853;-22
2023/05/15 09:29:36;;;;;;;;;;;;;;;;;;2210634;67;2621;-22
2023/05/15 09:32:07;;;;;;;;;;;;;;;;;;2213285;66;2979;-22
2023/05/15 09:34:38;;;;;;;;;;;;;;;;;;2213321;59;3010;-22
2023/05/15 09:37:10;;;;;;;;;;;;;;;;;;2206916;67;3317;-22
2023/05/15 09:39:44;;;;;;;;;;;;;;;;;;2212833;59;3353;-21
2023/05/15 09:42:14;;;;;;;;;;;;;;;;;;2213056;67;2634;-23
2023/05/15 09:44:45;;;;;;;;;;;;;;;;;;2212836;66;3130;-22
2023/05/15 09:47:16;;;;;;;;;;;;;;;;;;2213602;59;3195;-21
2023/05/15 09:49:49;;;;;;;;;;;;;;;;;;2213263;67;3146;-22
2023/05/15 09:52:22;;;;;;;;;;;;;;;;;;2210360;59;2253;-22
2023/05/15 09:54:52;;;;;;;;;;;;;;;;;;2214143;59;2119;-22
2023/05/15 09:57:22;;;;;;;;;;;;;;;;;;2213339;67;2106;-22
2023/05/15 09:59:53;;;;;;;;;;;;;;;;;;2213655;59;2447;-22
2023/05/15 10:02:30;;;;;;;;;;;;;;;;;;2213290;59;2110;-22
2023/05/15 10:05:01;;;;;;;;;;;;;;;;;;2213389;59;2937;-22
2023/05/15 10:07:32;;;;;;;;;;;;;;;;;;2212396;59;2149;-22
2023/05/15 10:10:03;;;;;;;;;;;;;;;;;;2210851;53;3568;-24
2023/05/15 10:12:35;;;;;;;;;;;;;;;;;;2198377;66;2802;-23
2023/05/15 10:15:06;;;;;;;;;;;;;;;;;;2200651;66;2546;-23
2023/05/15 10:17:36;;;;;;;;;;;;;;;;;;2200139;66;2972;-24
2023/05/15 10:20:07;;;;;;;;;;;;;;;;;;2200169;66;2961;-24
2023/05/15 10:22:39;;;;;;;;;;;;;;;;;;2200245;66;2776;-24
2023/05/15 10:25:15;;;;;;;;;;;;;;;;;;2200493;66;2031;-23
2023/05/15 10:27:50;;;;;;;;;;;;;;;;;;2200496;66;2250;-24
2023/05/15 10:30:20;;;;;;;;;;;;;;;;;;2199958;66;2750;-23
2023/05/15 10:32:51;;;;;;;;;;;;;;;;;;2200634;64;2904;-23
2023/05/15 10:35:21;;;;;;;;;;;;;;;;;;2199816;59;2244;-23
2023/05/15 10:37:52;;;;;;;;;;;;;;;;;;2199846;59;2037;-23
2023/05/15 10:40:22;;;;;;;;;;;;;;;;;;2197835;59;3421;-23
2023/05/15 10:42:54;;;;;;;;;;;;;;;;;;2194883;59;2236;-23
2023/05/15 10:45:28;;;;;;;;;;;;;;;;;;2199263;66;2683;-23
2023/05/15 10:47:58;;;;;;;;;;;;;;;;;;2199851;59;3271;-23
2023/05/15 10:50:28;;;;;;;;;;;;;;;;;;2200298;59;3027;-24
2023/05/15 10:52:59;;;;;;;;;;;;;;;;;;2199000;59;3309;-23
2023/05/15 10:55:29;;;;;;;;;;;;;;;;;;2201823;58;1948;-24
2023/05/15 10:57:59;;;;;;;;;;;;;;;;;;2200278;59;2865;-24
2023/05/15 11:00:33;;;;;;;;;;;;;;;;;;2199300;59;2071;-24
2023/05/15 11:03:03;;;;;;;;;;;;;;;;;;2200809;59;2728;-23
2023/05/15 11:05:52;;;;;;;;;;;;;;;;;;2202584;66;2514;-23
2023/05/15 11:08:24;;;;;;;;;;;;;;;;;;2199756;59;2912;-23
2023/05/15 11:10:55;;;;;;;;;;;;;;;;;;2198300;59;2810;-23
2023/05/15 11:13:25;;;;;;;;;;;;;;;;;;2197995;66;2865;-23
2023/05/15 11:15:56;;;;;;;;;;;;;;;;;;2200648;66;2978;-24
2023/05/15 11:18:26;;;;;;;;;;;;;;;;;;2200354;59;2911;-24
2023/05/15 11:20:56;;;;;;;;;;;;;;;;;;2200657;66;3117;-24
2023/05/15 11:23:26;;;;;;;;;;;;;;;;;;2198963;66;2128;-24
2023/05/15 11:25:57;;;;;;;;;;;;;;;;;;2195068;67;2454;-24
2023/05/15 11:28:27;;;;;;;;;;;;;;;;;;2200853;59;1964;-23
2023/05/15 11:31:04;;;;;;;;;;;;;;;;;;2200559;59;2108;-24
2023/05/15 11:33:36;;;;;;;;;;;;;;;;;;2198400;59;2695;-24
2023/05/15 11:36:07;;;;;;;;;;;;;;;;;;2201116;66;1930;-24
2023/05/15 11:38:38;;;;;;;;;;;;;;;;;;2200287;59;2116;-24
2023/05/15 11:41:16;;;;;;;;;;;;;;;;;;2197451;66;2698;-23
2023/05/15 11:43:46;;;;;;;;;;;;;;;;;;2201041;66;2038;-24
2023/05/15 11:46:17;;;;;;;;;;;;;;;;;;2200634;66;2214;-24
2023/05/15 11:48:48;;;;;;;;;;;;;;;;;;2197014;59;4443;-24
2023/05/15 11:51:23;;;;;;;;;;;;;;;;;;2199864;59;2136;-24
2023/05/15 11:53:54;;;;;;;;;;;;;;;;;;2200255;58;2463;-24
2023/05/15 11:56:28;;;;;;;;;;;;;;;;;;2200859;66;2178;-24
2023/05/15 11:58:59;;;;;;;;;;;;;;;;;;2200050;59;2907;-24
2023/05/15 12:01:42;;;;;;;;;;;;;;;;;;2197873;59;3197;-23
2023/05/15 12:04:16;;;;;;;;;;;;;;;;;;2201058;66;2073;-23
2023/05/15 12:06:48;;;;;;;;;;;;;;;;;;2199763;66;2080;-23
2023/05/15 12:09:20;;;;;;;;;;;;;;;;;;2200316;66;2079;-23
2023/05/15 12:11:54;;;;;;;;;;;;;;;;;;2200486;66;3198;-23
2023/05/15 12:14:28;;;;;;;;;;;;;;;;;;2201243;59;2624;-23
2023/05/15 12:17:01;;;;;;;;;;;;;;;;;;2196475;59;2249;-23
2023/05/15 12:19:36;;;;;;;;;;;;;;;;;;2195054;66;2703;-23
2023/05/15 12:22:07;;;;;;;;;;;;;;;;;;2198331;66;2712;-23
2023/05/15 12:24:38;;;;;;;;;;;;;;;;;;2200282;66;2634;-23
2023/05/15 12:27:09;;;;;;;;;;;;;;;;;;2200197;66;2980;-23
2023/05/15 12:29:40;;;;;;;;;;;;;;;;;;2198655;66;3396;-23
2023/05/15 12:32:10;;;;;;;;;;;;;;;;;;2201295;66;2818;-23
2023/05/15 12:34:40;;;;;;;;;;;;;;;;;;2199556;66;2712;-23
2023/05/15 12:37:12;;;;;;;;;;;;;;;;;;2200350;66;3146;-23
2023/05/15 12:40:14;;;;;;;;;;;;;;;;;;2201594;59;2709;-23
2023/05/15 12:42:44;;;;;;;;;;;;;;;;;;2195376;59;3388;-23
2023/05/15 12:45:16;;;;;;;;;;;;;;;;;;2198883;66;2389;-23
2023/05/15 12:47:47;;;;;;;;;;;;;;;;;;2200180;66;2540;-23
2023/05/15 12:50:18;;;;;;;;;;;;;;;;;;2198949;59;2762;-23
2023/05/15 12:52:50;;;;;;;;;;;;;;;;;;2195776;59;3167;-23
2023/05/15 12:55:34;;;;;;;;;;;;;;;;;;2198602;58;3373;-23
2023/05/15 12:58:05;;;;;;;;;;;;;;;;;;2200567;59;3311;-23
2023/05/15 13:00:37;;;;;;;;;;;;;;;;;;2198077;59;2928;-23
2023/05/15 13:03:10;;;;;;;;;;;;;;;;;;2199444;59;2754;-23
2023/05/15 13:05:41;;;;;;;;;;;;;;;;;;2200102;66;2827;-23
2023/05/15 13:08:18;;;;;;;;;;;;;;;;;;2200920;59;2633;-23
2023/05/15 13:10:55;;;;;;;;;;;;;;;;;;2200102;59;2945;-23
2023/05/15 13:13:44;;;;;;;;;;;;;;;;;;2196794;59;2770;-23
2023/05/15 13:16:23;;;;;;;;;;;;;;;;;;2199922;66;2639;-23
2023/05/15 13:18:57;;;;;;;;;;;;;;;;;;2199692;59;2204;-23
2023/05/15 13:21:28;;;;;;;;;;;;;;;;;;2199158;66;2855;-23
2023/05/15 13:23:58;;;;;;;;;;;;;;;;;;2199300;59;3211;-23
2023/05/15 13:26:29;;;;;;;;;;;;;;;;;;2200541;66;2690;-23
2023/05/15 13:29:00;;;;;;;;;;;;;;;;;;2201096;66;2041;-23
2023/05/15 13:31:31;;;;;;;;;;;;;;;;;;2200336;59;2267;-23
2023/05/15 13:34:01;;;;;;;;;;;;;;;;;;2199380;59;2195;-23
2023/05/15 13:36:31;;;;;;;;;;;;;;;;;;2200373;66;2283;-23
2023/05/15 13:39:02;;;;;;;;;;;;;;;;;;2200552;59;2632;-23
2023/05/15 13:41:32;;;;;;;;;;;;;;;;;;2200261;60;2499;-23
2023/05/15 13:44:03;;;;;;;;;;;;;;;;;;2200101;59;2381;-23
2023/05/15 13:46:33;;;;;;;;;;;;;;;;;;2200402;59;2312;-23
2023/05/15 13:49:04;;;;;;;;;;;;;;;;;;2200329;66;2403;-23
2023/05/15 13:51:35;;;;;;;;;;;;;;;;;;2199845;59;2586;-23
2023/05/15 13:54:05;;;;;;;;;;;;;;;;;;2200709;58;2792;-23
2023/05/15 13:56:35;;;;;;;;;;;;;;;;;;2200221;59;2228;-23
2023/05/15 13:59:05;;;;;;;;;;;;;;;;;;2201087;59;3075;-23
2023/05/15 14:01:35;;;;;;;;;;;;;;;;;;2197833;59;2679;-23
2023/05/15 14:04:06;;;;;;;;;;;;;;;;;;2200124;66;3262;-23
2023/05/15 14:06:36;;;;;;;;;;;;;;;;;;2201020;66;2861;-22
2023/05/15 14:09:06;;;;;;;;;;;;;;;;;;2200865;66;2541;-22
2023/05/15 14:11:36;;;;;;;;;;;;;;;;;;2199694;59;2695;-22
2023/05/15 14:14:07;;;;;;;;;;;;;;;;;;2200057;66;3000;-22
2023/05/15 14:16:37;;;;;;;;;;;;;;;;;;2199944;59;2664;-22
2023/05/15 14:19:10;;;;;;;;;;;;;;;;;;2198090;66;2340;-24
2023/05/15 14:21:40;;;;;;;;;;;;;;;;;;2200304;66;2589;-25
2023/05/15 14:24:11;;;;;;;;;;;;;;;;;;2201217;59;2810;-27
2023/05/15 14:26:43;;;;;;;;;;;;;;;;;;2203024;58;3230;-27
2023/05/15 14:29:13;;;;;;;;;;;;;;;;;;2199383;59;2818;-27
2023/05/15 14:31:43;;;;;;;;;;;;;;;;;;2200669;66;2868;-27
2023/05/15 14:34:14;;;;;;;;;;;;;;;;;;2200714;59;1984;-27
2023/05/15 14:36:45;;;;;;;;;;;;;;;;;;2200429;66;2043;-27
2023/05/15 14:39:16;;;;;;;;;;;;;;;;;;2200884;58;2483;-27
2023/05/15 14:41:46;;;;;;;;;;;;;;;;;;2198812;59;2531;-27
2023/05/15 14:44:16;;;;;;;;;;;;;;;;;;2200009;66;2676;-27
2023/05/15 14:46:47;;;;;;;;;;;;;;;;;;2200946;60;2890;-27
2023/05/15 14:49:17;;;;;;;;;;;;;;;;;;2200488;66;2046;-27
2023/05/15 14:51:47;;;;;;;;;;;;;;;;;;2199069;59;2639;-27
2023/05/15 14:54:17;;;;;;;;;;;;;;;;;;2199329;59;3192;-27
2023/05/15 14:56:47;;;;;;;;;;;;;;;;;;2198764;63;2364;-28
2023/05/15 14:59:17;;;;;;;;;;;;;;;;;;2200446;59;2656;-27
2023/05/15 15:01:48;;;;;;;;;;;;;;;;;;2201175;59;2926;-27
2023/05/15 15:04:18;;;;;;;;;;;;;;;;;;2200038;59;2663;-27
2023/05/15 15:06:48;;;;;;;;;;;;;;;;;;2200178;66;2314;-27
2023/05/15 15:09:19;;;;;;;;;;;;;;;;;;2196090;66;2592;-27
2023/05/15 15:11:49;;;;;;;;;;;;;;;;;;2200109;66;2397;-27
2023/05/15 15:14:19;;;;;;;;;;;;;;;;;;2200416;66;2159;-27
2023/05/15 15:16:50;;;;;;;;;;;;;;;;;;2200554;66;3289;-27
2023/05/15 15:19:20;;;;;;;;;;;;;;;;;;2200554;59;2701;-24
2023/05/15 15:21:50;;;;;;;;;;;;;;;;;;2201528;66;3021;-24
2023/05/15 15:24:21;;;;;;;;;;;;;;;;;;2201778;59;2264;-25
2023/05/15 15:26:51;;;;;;;;;;;;;;;;;;2199061;66;2930;-25
2023/05/15 15:29:21;;;;;;;;;;;;;;;;;;2202029;59;2317;-27
2023/05/15 15:31:51;;;;;;;;;;;;;;;;;;2203572;59;2995;-27
2023/05/15 15:34:21;;;;;;;;;;;;;;;;;;2200615;59;2834;-27
2023/05/15 15:36:51;;;;;;;;;;;;;;;;;;2200361;59;2965;-24
2023/05/15 15:39:22;;;;;;;;;;;;;;;;;;2200632;59;2924;-23
2023/05/15 15:41:53;;;;;;;;;;;;;;;;;;2199018;66;3577;-23
2023/05/15 15:44:23;;;;;;;;;;;;;;;;;;2197793;59;2275;-23
2023/05/15 15:46:56;;;;;;;;;;;;;;;;;;2200676;59;2326;-23
2023/05/15 15:49:27;;;;;;;;;;;;;;;;;;2198892;59;2617;-23
2023/05/15 15:51:57;;;;;;;;;;;;;;;;;;2197930;59;2612;-23
2023/05/15 15:54:27;;;;;;;;;;;;;;;;;;2201459;58;2102;-24
2023/05/15 15:56:58;;;;;;;;;;;;;;;;;;2195539;59;2280;-24
2023/05/15 15:59:28;;;;;;;;;;;;;;;;;;2199560;59;3051;-24
2023/05/15 16:01:58;;;;;;;;;;;;;;;;;;2200414;59;2869;-24
2023/05/15 16:04:28;;;;;;;;;;;;;;;;;;2200580;66;2313;-26
2023/05/15 16:06:59;;;;;;;;;;;;;;;;;;2201095;67;3038;-24
2023/05/15 16:09:29;;;;;;;;;;;;;;;;;;2200940;59;3255;-24
2023/05/15 16:12:00;;;;;;;;;;;;;;;;;;2199183;59;2575;-24
2023/05/15 16:14:30;;;;;;;;;;;;;;;;;;2200559;59;3562;-24
2023/05/15 16:17:01;;;;;;;;;;;;;;;;;;2197115;59;2273;-23
2023/05/15 16:19:31;;;;;;;;;;;;;;;;;;2198228;59;2319;-23
2023/05/15 16:22:01;;;;;;;;;;;;;;;;;;2201320;66;2281;-23
2023/05/15 16:24:36;;;;;;;;;;;;;;;;;;2201246;59;2294;-24
2023/05/15 16:27:06;;;;;;;;;;;;;;;;;;2199014;66;3035;-24
2023/05/15 16:29:36;;;;;;;;;;;;;;;;;;2200382;59;2310;-25
2023/05/15 16:32:06;;;;;;;;;;;;;;;;;;2200865;59;2430;-24
2023/05/15 16:34:37;;;;;;;;;;;;;;;;;;2197865;66;2712;-22
2023/05/15 16:37:07;;;;;;;;;;;;;;;;;;2202753;66;3031;-22
2023/05/15 16:39:40;;;;;;;;;;;;;;;;;;2198571;59;2985;-22
2023/05/15 16:42:10;;;;;;;;;;;;;;;;;;2200930;66;3272;-23
2023/05/15 16:44:41;;;;;;;;;;;;;;;;;;2202076;66;2609;-24
2023/05/15 16:47:11;;;;;;;;;;;;;;;;;;2197023;59;3106;-24
2023/05/15 16:49:41;;;;;;;;;;;;;;;;;;2201469;59;2305;-24
2023/05/15 16:52:12;;;;;;;;;;;;;;;;;;2198117;59;3030;-24
2023/05/15 16:54:42;;;;;;;;;;;;;;;;;;2201651;58;3084;-24
2023/05/15 16:57:15;;;;;;;;;;;;;;;;;;2200918;66;2737;-25
2023/05/15 16:59:46;;;;;;;;;;;;;;;;;;2200687;59;2420;-24
2023/05/15 17:02:16;;;;;;;;;;;;;;;;;;2200469;59;2687;-24
2023/05/15 17:04:46;;;;;;;;;;;;;;;;;;2201171;66;3108;-25
2023/05/15 17:07:16;;;;;;;;;;;;;;;;;;2200950;66;3011;-24
2023/05/15 17:09:50;;;;;;;;;;;;;;;;;;2197630;59;2674;-25
2023/05/15 17:12:21;;;;;;;;;;;;;;;;;;2199362;66;2302;-24
2023/05/15 17:14:51;;;;;;;;;;;;;;;;;;2201541;66;2639;-24
2023/05/15 17:17:24;;;;;;;;;;;;;;;;;;2200233;66;2069;-24
2023/05/15 17:19:55;;;;;;;;;;;;;;;;;;2200373;59;2717;-25
2023/05/15 17:22:25;;;;;;;;;;;;;;;;;;2201010;66;2563;-25
2023/05/15 17:24:55;;;;;;;;;;;;;;;;;;2201288;59;3061;-25
2023/05/15 17:27:25;;;;;;;;;;;;;;;;;;2201559;66;2656;-25
2023/05/15 17:29:55;;;;;;;;;;;;;;;;;;2201514;66;2979;-25